createdAt,value
2019-04-21T00:00:39.762Z,7.10
2019-04-21T00:01:44.639Z,7.00
2019-04-21T00:02:44.080Z,7.10
2019-04-21T00:03:48.658Z,7.10
2019-04-21T00:04:52.815Z,7.70
2019-04-21T00:05:58.879Z,6.80
2019-04-21T00:07:03.007Z,7.70
2019-04-21T00:08:05.043Z,7.30
2019-04-21T00:09:02.658Z,7.60
2019-04-21T00:10:09.503Z,7.00
2019-04-21T00:11:02.906Z,7.00
2019-04-21T00:12:04.005Z,7.40
2019-04-21T00:12:56.753Z,7.00
2019-04-21T00:13:52.190Z,7.30
2019-04-21T00:14:50.991Z,7.30
2019-04-21T00:15:48.838Z,7.50
2019-04-21T00:16:50.355Z,7.10
2019-04-21T00:17:43.643Z,7.40
2019-04-21T00:18:48.616Z,7.10
2019-04-21T00:19:41.266Z,6.90
2019-04-21T00:20:44.862Z,7.40
2019-04-21T00:21:47.055Z,7.40
2019-04-21T00:22:52.373Z,7.60
2019-04-21T00:23:56.149Z,7.20
2019-04-21T00:24:54.344Z,7.10
2019-04-21T00:25:52.955Z,7.60
2019-04-21T00:27:01.150Z,7.60
2019-04-21T00:28:02.609Z,7.10
2019-04-21T00:29:06.307Z,7.60
2019-04-21T00:29:59.116Z,7.20
2019-04-21T00:31:01.805Z,7.00
2019-04-21T00:31:56.011Z,7.80
2019-04-21T00:32:53.503Z,7.60
2019-04-21T00:33:44.460Z,7.50
2019-04-21T00:34:47.498Z,7.50
2019-04-21T00:35:50.487Z,7.50
2019-04-21T00:36:57.284Z,7.60
2019-04-21T00:38:00.370Z,7.30
2019-04-21T00:39:09.558Z,7.30
2019-04-21T00:41:00.601Z,7.30
2019-04-21T00:41:59.622Z,8.20
2019-04-21T00:42:59.890Z,8.20
2019-04-21T00:43:56.003Z,7.60
2019-04-21T00:45:00.503Z,7.60
2019-04-21T00:45:54.837Z,7.20
2019-04-21T00:46:52.140Z,7.80
2019-04-21T00:48:03.905Z,7.80
2019-04-21T00:48:57.433Z,7.40
2019-04-21T00:50:02.057Z,7.70
2019-04-21T00:51:16.646Z,7.40
2019-04-21T00:52:13.497Z,7.80
2019-04-21T00:53:00.547Z,7.50
2019-04-21T00:54:13.448Z,7.90
2019-04-21T00:55:13.999Z,8.00
2019-04-21T00:56:04.130Z,8.10
2019-04-21T00:56:56.687Z,7.60
2019-04-21T00:58:05.275Z,8.00
2019-04-21T00:59:10.095Z,8.20
2019-04-21T01:00:01.256Z,7.70
2019-04-21T01:01:04.395Z,7.70
2019-04-21T01:02:01.251Z,7.40
2019-04-21T01:03:04.633Z,7.10
2019-04-21T01:04:04.790Z,7.20
2019-04-21T01:05:08.757Z,7.70
2019-04-21T01:06:03.378Z,7.60
2019-04-21T01:07:03.037Z,7.40
2019-04-21T01:08:01.119Z,7.70
2019-04-21T01:09:01.266Z,7.80
2019-04-21T01:09:54.044Z,7.10
2019-04-21T01:10:54.180Z,7.50
2019-04-21T01:12:01.366Z,7.20
2019-04-21T01:13:04.342Z,6.90
2019-04-21T01:14:05.268Z,7.60
2019-04-21T01:15:04.097Z,7.60
2019-04-21T01:15:59.778Z,7.70
2019-04-21T01:17:06.777Z,7.80
2019-04-21T01:17:57.399Z,7.10
2019-04-21T01:19:02.273Z,7.40
2019-04-21T01:19:55.977Z,7.60
2019-04-21T01:20:39.399Z,7.70
2019-04-21T01:21:38.416Z,7.90
2019-04-21T01:22:38.380Z,7.70
2019-04-21T01:23:38.367Z,7.60
2019-04-21T01:24:43.377Z,7.30
2019-04-21T01:25:50.048Z,7.50
2019-04-21T01:26:47.065Z,7.30
2019-04-21T01:27:53.804Z,7.60
2019-04-21T01:28:58.423Z,8.00
2019-04-21T01:30:01.291Z,7.60
2019-04-21T01:30:57.059Z,7.40
2019-04-21T01:32:05.139Z,7.90
2019-04-21T01:33:06.350Z,7.70
2019-04-21T01:34:04.739Z,7.00
2019-04-21T01:34:58.179Z,7.70
2019-04-21T01:36:02.513Z,7.60
2019-04-21T01:37:01.445Z,7.80
2019-04-21T01:38:03.076Z,7.90
2019-04-21T01:39:02.118Z,7.90
2019-04-21T01:40:02.622Z,7.60
2019-04-21T01:40:56.739Z,7.70
2019-04-21T01:42:01.580Z,7.20
2019-04-21T01:42:55.690Z,7.90
2019-04-21T01:43:57.864Z,7.60
2019-04-21T01:44:59.484Z,7.50
2019-04-21T01:46:03.939Z,7.40
2019-04-21T01:46:54.518Z,7.40
2019-04-21T01:47:57.490Z,7.10
2019-04-21T01:48:53.492Z,7.30
2019-04-21T01:49:50.092Z,8.40
2019-04-21T01:50:55.598Z,8.00
2019-04-21T01:52:10.070Z,8.10
2019-04-21T01:53:05.561Z,8.10
2019-04-21T01:54:03.545Z,7.50
2019-04-21T01:55:00.201Z,8.10
2019-04-21T01:56:04.833Z,7.80
2019-04-21T01:56:56.935Z,7.60
2019-04-21T01:57:57.649Z,7.40
2019-04-21T01:58:49.186Z,7.70
2019-04-21T01:59:54.339Z,7.90
2019-04-21T02:00:51.802Z,8.20
2019-04-21T02:02:02.368Z,7.90
2019-04-21T02:03:09.906Z,8.00
2019-04-21T02:03:56.903Z,8.10
2019-04-21T02:05:03.443Z,7.90
2019-04-21T02:06:08.763Z,8.10
2019-04-21T02:07:03.183Z,8.10
2019-04-21T02:07:55.048Z,8.60
2019-04-21T02:08:59.040Z,8.30
2019-04-21T02:10:05.148Z,7.70
2019-04-21T02:11:06.857Z,7.50
2019-04-21T02:12:05.689Z,8.10
2019-04-21T02:12:56.516Z,8.40
2019-04-21T02:14:05.401Z,8.50
2019-04-21T02:15:04.624Z,8.00
2019-04-21T02:16:01.107Z,8.40
2019-04-21T02:17:02.141Z,8.20
2019-04-21T02:17:59.073Z,7.70
2019-04-21T02:18:54.404Z,7.70
2019-04-21T02:19:56.142Z,8.50
2019-04-21T02:20:48.278Z,8.30
2019-04-21T02:21:52.004Z,8.40
2019-04-21T02:23:12.799Z,8.20
2019-04-21T02:24:08.541Z,7.50
2019-04-21T02:25:06.016Z,8.00
2019-04-21T02:25:57.801Z,8.30
2019-04-21T02:27:04.201Z,8.00
2019-04-21T02:28:09.915Z,7.90
2019-04-21T02:29:01.909Z,8.50
2019-04-21T02:30:02.782Z,8.40
2019-04-21T02:31:13.647Z,8.30
2019-04-21T02:32:11.748Z,8.40
2019-04-21T02:33:08.934Z,8.70
2019-04-21T02:34:04.587Z,7.80
2019-04-21T02:35:18.711Z,8.30
2019-04-21T02:36:22.817Z,8.50
2019-04-21T02:37:28.436Z,8.20
2019-04-21T02:38:13.232Z,8.50
2019-04-21T02:41:06.024Z,8.00
2019-04-21T02:44:12.369Z,7.90
2019-04-21T02:45:08.763Z,7.90
2019-04-21T02:46:19.578Z,8.30
2019-04-21T02:47:06.505Z,8.40
2019-04-21T02:48:11.339Z,8.50
2019-04-21T02:49:19.981Z,8.30
2019-04-21T02:50:15.716Z,8.50
2019-04-21T02:51:15.259Z,8.30
2019-04-21T02:52:11.491Z,8.90
2019-04-21T02:53:13.926Z,8.10
2019-04-21T02:56:11.643Z,8.80
2019-04-21T02:58:25.537Z,8.60
2019-04-21T02:59:15.292Z,8.70
2019-04-21T03:01:12.481Z,8.70
2019-04-21T03:02:17.030Z,9.30
2019-04-21T03:04:11.226Z,8.00
2019-04-21T03:05:11.651Z,8.80
2019-04-21T03:07:13.227Z,9.00
2019-04-21T03:08:18.729Z,9.00
2019-04-21T03:09:09.196Z,8.80
2019-04-21T03:10:14.591Z,9.00
2019-04-21T03:11:09.050Z,9.00
2019-04-21T03:12:11.621Z,8.70
2019-04-21T03:13:19.463Z,8.80
2019-04-21T03:14:22.362Z,8.60
2019-04-21T03:15:16.075Z,9.10
2019-04-21T03:16:18.457Z,9.00
2019-04-21T03:18:37.690Z,7.90
2019-04-21T03:19:17.539Z,8.90
2019-04-21T03:20:14.606Z,8.70
2019-04-21T03:21:26.681Z,9.30
2019-04-21T03:22:12.868Z,8.70
2019-04-21T03:23:19.158Z,9.10
2019-04-21T03:24:13.734Z,8.70
2019-04-21T03:25:28.385Z,9.00
2019-04-21T03:27:25.963Z,8.40
2019-04-21T03:28:16.267Z,9.10
2019-04-21T03:29:17.504Z,8.60
2019-04-21T03:30:10.393Z,8.40
2019-04-21T03:32:32.690Z,8.70
2019-04-21T03:33:43.182Z,8.60
2019-04-21T03:34:41.223Z,9.10
2019-04-21T03:35:54.322Z,9.40
2019-04-21T03:37:11.773Z,8.90
2019-04-21T03:38:16.652Z,9.00
2019-04-21T03:39:01.239Z,9.40
2019-04-21T03:40:06.803Z,9.20
2019-04-21T03:42:21.941Z,9.20
2019-04-21T03:43:23.203Z,9.00
2019-04-21T03:44:06.596Z,9.00
2019-04-21T03:45:12.698Z,8.60
2019-04-21T03:46:12.446Z,8.70
2019-04-21T03:48:13.766Z,9.10
2019-04-21T03:49:10.613Z,8.70
2019-04-21T03:50:13.398Z,8.30
2019-04-21T03:51:12.519Z,9.20
2019-04-21T03:52:11.991Z,8.30
2019-04-21T03:53:09.626Z,8.90
2019-04-21T03:54:09.274Z,8.50
2019-04-21T03:55:35.522Z,8.90
2019-04-21T03:56:27.083Z,8.90
2019-04-21T03:58:17.803Z,8.60
2019-04-21T04:00:20.892Z,8.80
2019-04-21T04:01:16.572Z,9.20
2019-04-21T04:03:28.123Z,9.00
2019-04-21T04:04:22.365Z,9.00
2019-04-21T04:05:15.140Z,9.30
2019-04-21T04:06:13.756Z,9.00
2019-04-21T04:07:10.944Z,8.30
2019-04-21T04:08:22.492Z,9.00
2019-04-21T04:09:26.175Z,9.00
2019-04-21T04:10:08.236Z,8.50
2019-04-21T04:11:23.057Z,9.40
2019-04-21T04:12:01.117Z,9.60
2019-04-21T04:13:09.436Z,9.30
2019-04-21T04:14:12.810Z,9.10
2019-04-21T04:16:10.608Z,8.40
2019-04-21T04:17:11.534Z,9.10
2019-04-21T04:18:03.771Z,9.60
2019-04-21T04:19:09.065Z,9.60
2019-04-21T04:20:16.122Z,8.40
2019-04-21T04:21:12.369Z,9.00
2019-04-21T04:23:20.166Z,9.30
2019-04-21T04:26:09.192Z,9.00
2019-04-21T04:28:10.181Z,8.90
2019-04-21T04:29:17.933Z,8.80
2019-04-21T04:30:12.467Z,9.40
2019-04-21T04:31:22.419Z,8.70
2019-04-21T04:32:07.924Z,8.90
2019-04-21T04:33:16.936Z,9.80
2019-04-21T04:36:15.642Z,8.90
2019-04-21T04:38:14.796Z,9.40
2019-04-21T04:39:26.275Z,8.80
2019-04-21T04:40:10.023Z,8.80
2019-04-21T04:41:16.318Z,9.30
2019-04-21T04:44:13.659Z,9.50
2019-04-21T04:45:19.658Z,9.70
2019-04-21T04:47:15.560Z,9.30
2019-04-21T04:48:05.785Z,9.50
2019-04-21T04:49:12.786Z,9.60
2019-04-21T04:50:06.749Z,9.40
2019-04-21T04:51:01.682Z,9.20
2019-04-21T04:52:26.260Z,9.90
2019-04-21T04:53:12.015Z,9.30
2019-04-21T04:54:33.761Z,9.20
2019-04-21T04:58:07.221Z,8.80
2019-04-21T04:59:29.993Z,9.50
2019-04-21T05:00:21.361Z,9.60
2019-04-21T05:01:13.790Z,9.60
2019-04-21T05:03:01.382Z,9.00
2019-04-21T05:04:06.364Z,9.40
2019-04-21T05:05:13.619Z,9.30
2019-04-21T05:06:10.661Z,9.90
2019-04-21T05:07:07.166Z,9.80
2019-04-21T05:11:30.947Z,9.30
2019-04-21T05:12:15.849Z,9.60
2019-04-21T05:13:06.105Z,9.50
2019-04-21T05:15:10.017Z,9.30
2019-04-21T05:16:21.735Z,9.20
2019-04-21T05:17:03.855Z,9.00
2019-04-21T05:18:05.421Z,9.60
2019-04-21T05:20:11.180Z,9.60
2019-04-21T05:21:19.030Z,9.10
2019-04-21T05:22:59.809Z,9.60
2019-04-21T05:23:55.836Z,9.40
2019-04-21T05:24:53.767Z,10.10
2019-04-21T05:25:50.805Z,10.10
2019-04-21T05:26:54.884Z,10.60
2019-04-21T05:27:52.489Z,9.80
2019-04-21T05:28:47.459Z,9.40
2019-04-21T05:29:59.922Z,9.50
2019-04-21T05:31:11.491Z,8.90
2019-04-21T05:32:13.522Z,10.20
2019-04-21T05:33:00.043Z,8.80
2019-04-21T05:33:54.305Z,10.00
2019-04-21T05:34:57.053Z,9.40
2019-04-21T05:35:59.684Z,9.70
2019-04-21T05:36:59.277Z,9.00
2019-04-21T05:37:55.281Z,9.90
2019-04-21T05:38:53.308Z,10.10
2019-04-21T05:39:52.291Z,10.30
2019-04-21T05:40:48.259Z,9.80
2019-04-21T05:41:49.075Z,9.50
2019-04-21T05:42:55.456Z,9.90
2019-04-21T05:43:56.518Z,10.80
2019-04-21T05:45:01.681Z,11.30
2019-04-21T05:46:02.498Z,10.90
2019-04-21T05:47:07.692Z,10.60
2019-04-21T05:48:02.795Z,10.50
2019-04-21T05:49:00.852Z,10.90
2019-04-21T05:49:55.754Z,10.40
2019-04-21T05:50:56.585Z,10.40
2019-04-21T05:51:50.460Z,10.20
2019-04-21T05:52:50.379Z,10.60
2019-04-21T05:54:06.953Z,10.20
2019-04-21T05:56:08.303Z,10.30
2019-04-21T05:56:55.512Z,10.60
2019-04-21T05:57:57.324Z,10.20
2019-04-21T05:58:57.984Z,10.80
2019-04-21T05:59:53.325Z,10.70
2019-04-21T06:02:07.202Z,10.20
2019-04-21T06:03:05.627Z,11.10
2019-04-21T06:06:08.297Z,10.00
2019-04-21T06:07:04.627Z,10.80
2019-04-21T06:08:02.464Z,10.50
2019-04-21T06:08:59.515Z,10.50
2019-04-21T06:10:02.819Z,10.60
2019-04-21T06:11:05.474Z,10.20
2019-04-21T06:11:55.620Z,10.40
2019-04-21T06:12:59.279Z,9.80
2019-04-21T06:14:04.624Z,10.00
2019-04-21T06:15:14.098Z,10.30
2019-04-21T06:17:04.577Z,10.50
2019-04-21T06:17:56.360Z,10.00
2019-04-21T06:18:58.621Z,11.20
2019-04-21T06:20:00.329Z,10.20
2019-04-21T06:21:01.353Z,10.70
2019-04-21T06:21:57.212Z,10.50
2019-04-21T06:22:56.647Z,9.80
2019-04-21T06:23:57.066Z,11.00
2019-04-21T06:26:25.778Z,9.60
2019-04-21T06:28:01.783Z,10.40
2019-04-21T06:29:01.205Z,10.90
2019-04-21T06:30:00.156Z,10.50
2019-04-21T06:31:05.634Z,10.40
2019-04-21T06:32:52.826Z,10.10
2019-04-21T06:33:58.800Z,10.20
2019-04-21T06:37:07.879Z,9.40
2019-04-21T06:38:00.922Z,10.00
2019-04-21T06:39:06.507Z,10.50
2019-04-21T06:40:15.122Z,10.40
2019-04-21T06:41:05.114Z,10.80
2019-04-21T06:41:58.490Z,9.30
2019-04-21T06:43:11.377Z,10.20
2019-04-21T06:44:20.355Z,9.70
2019-04-21T06:45:05.955Z,8.90
2019-04-21T06:46:02.618Z,8.80
2019-04-21T06:46:59.374Z,8.80
2019-04-21T06:47:59.511Z,9.70
2019-04-21T06:49:01.300Z,9.90
2019-04-21T06:49:58.469Z,9.80
2019-04-21T06:51:03.188Z,9.50
2019-04-21T06:52:10.938Z,9.70
2019-04-21T06:53:20.488Z,9.40
2019-04-21T06:55:02.555Z,9.70
2019-04-21T06:56:00.174Z,9.80
2019-04-21T06:56:58.554Z,9.60
2019-04-21T06:57:57.979Z,10.00
2019-04-21T06:59:57.450Z,10.00
2019-04-21T07:00:54.776Z,10.00
2019-04-21T07:03:11.377Z,10.20
2019-04-21T07:04:05.689Z,9.60
2019-04-21T07:05:03.578Z,9.50
2019-04-21T07:06:03.472Z,9.40
2019-04-21T07:07:14.489Z,9.40
2019-04-21T07:08:19.747Z,8.90
2019-04-21T07:09:10.432Z,8.40
2019-04-21T07:10:01.459Z,8.70
2019-04-21T07:10:56.252Z,9.50
2019-04-21T07:11:56.758Z,9.00
2019-04-21T07:12:51.563Z,9.60
2019-04-21T07:14:16.056Z,10.00
2019-04-21T07:15:01.982Z,10.00
2019-04-21T07:15:55.880Z,8.60
2019-04-21T07:17:57.789Z,9.40
2019-04-21T07:19:05.931Z,9.70
2019-04-21T07:20:03.687Z,9.90
2019-04-21T07:21:00.175Z,10.70
2019-04-21T07:21:57.104Z,9.20
2019-04-21T07:23:03.495Z,9.30
2019-04-21T07:24:02.084Z,9.70
2019-04-21T07:24:56.025Z,9.50
2019-04-21T07:26:00.383Z,9.10
2019-04-21T07:27:00.279Z,8.90
2019-04-21T07:27:58.029Z,8.50
2019-04-21T07:29:02.896Z,9.30
2019-04-21T07:29:58.186Z,9.10
2019-04-21T07:31:03.608Z,9.10
2019-04-21T07:32:04.362Z,8.70
2019-04-21T07:33:01.207Z,9.20
2019-04-21T07:33:57.535Z,9.30
2019-04-21T07:35:00.649Z,9.90
2019-04-21T07:35:58.661Z,9.70
2019-04-21T07:37:57.700Z,8.90
2019-04-21T07:38:55.388Z,9.10
2019-04-21T07:39:54.612Z,9.30
2019-04-21T07:40:50.054Z,9.40
2019-04-21T07:41:55.832Z,9.90
2019-04-21T07:42:51.157Z,9.90
2019-04-21T07:43:53.420Z,9.20
2019-04-21T07:44:49.439Z,9.50
2019-04-21T07:45:49.860Z,9.40
2019-04-21T07:46:45.206Z,9.30
2019-04-21T07:47:59.245Z,9.40
2019-04-21T07:48:58.756Z,9.90
2019-04-21T07:49:59.228Z,9.40
2019-04-21T07:50:57.854Z,9.10
2019-04-21T07:51:56.833Z,9.30
2019-04-21T07:53:03.654Z,9.80
2019-04-21T07:54:07.471Z,8.80
2019-04-21T07:55:05.910Z,9.50
2019-04-21T07:55:37.310Z,9.20
2019-04-21T07:56:40.164Z,9.70
2019-04-21T07:57:52.145Z,9.20
2019-04-21T07:58:58.214Z,9.40
2019-04-21T08:00:12.483Z,9.00
2019-04-21T08:00:58.983Z,8.80
2019-04-21T08:01:56.607Z,9.80
2019-04-21T08:02:54.055Z,8.50
2019-04-21T08:04:03.375Z,8.50
2019-04-21T08:05:04.994Z,9.30
2019-04-21T08:05:58.966Z,8.70
2019-04-21T08:06:52.000Z,9.30
2019-04-21T08:08:52.865Z,8.20
2019-04-21T08:09:55.111Z,7.90
2019-04-21T08:10:50.925Z,8.40
2019-04-21T08:11:51.802Z,7.90
2019-04-21T08:12:55.623Z,8.40
2019-04-21T08:14:06.927Z,7.60
2019-04-21T08:15:01.289Z,8.30
2019-04-21T08:16:10.981Z,8.50
2019-04-21T08:16:57.721Z,8.10
2019-04-21T08:17:53.733Z,8.30
2019-04-21T08:18:54.918Z,8.50
2019-04-21T08:19:53.614Z,8.40
2019-04-21T08:20:54.420Z,8.40
2019-04-21T08:22:02.172Z,8.80
2019-04-21T08:23:13.073Z,8.10
2019-04-21T08:23:55.455Z,8.00
2019-04-21T08:24:58.796Z,8.10
2019-04-21T08:25:59.520Z,8.40
2019-04-21T08:26:58.659Z,7.70
2019-04-21T08:28:01.166Z,8.00
2019-04-21T08:29:01.069Z,7.90
2019-04-21T08:30:01.666Z,7.90
2019-04-21T08:30:54.208Z,8.20
2019-04-21T08:32:03.074Z,8.40
2019-04-21T08:33:05.381Z,8.40
2019-04-21T08:34:03.359Z,7.80
2019-04-21T08:35:07.397Z,8.30
2019-04-21T08:36:53.657Z,8.70
2019-04-21T08:37:59.138Z,9.20
2019-04-21T08:38:53.998Z,9.30
2019-04-21T08:40:04.945Z,8.90
2019-04-21T08:40:57.354Z,8.50
2019-04-21T08:41:51.209Z,9.20
2019-04-21T08:42:57.085Z,8.90
2019-04-21T08:43:51.304Z,8.40
2019-04-21T08:44:53.064Z,7.90
2019-04-21T08:45:52.630Z,8.90
2019-04-21T08:47:00.213Z,8.70
2019-04-21T08:48:55.397Z,8.80
2019-04-21T08:49:55.908Z,8.80
2019-04-21T08:51:05.591Z,10.10
2019-04-21T08:52:00.770Z,10.00
2019-04-21T08:52:56.806Z,9.30
2019-04-21T08:54:07.581Z,9.30
2019-04-21T08:55:01.596Z,9.60
2019-04-21T08:56:03.238Z,9.00
2019-04-21T08:56:52.620Z,9.30
2019-04-21T08:58:08.495Z,9.20
2019-04-21T08:59:00.736Z,8.70
2019-04-21T09:00:00.066Z,8.70
2019-04-21T09:00:56.321Z,9.00
2019-04-21T09:02:00.318Z,8.80
2019-04-21T09:03:00.329Z,8.40
2019-04-21T09:03:56.733Z,8.70
2019-04-21T09:04:54.191Z,8.80
2019-04-21T09:05:49.423Z,8.90
2019-04-21T09:07:10.624Z,8.40
2019-04-21T09:07:57.382Z,9.50
2019-04-21T09:08:52.239Z,8.40
2019-04-21T09:09:54.690Z,8.40
2019-04-21T09:10:53.077Z,8.40
2019-04-21T09:11:54.065Z,8.20
2019-04-21T09:12:55.685Z,8.40
2019-04-21T09:13:54.725Z,7.80
2019-04-21T09:14:55.339Z,8.70
2019-04-21T09:15:54.976Z,8.70
2019-04-21T09:16:53.704Z,8.40
2019-04-21T09:17:44.705Z,8.50
2019-04-21T09:18:45.651Z,8.30
2019-04-21T09:20:13.503Z,8.00
2019-04-21T09:20:58.037Z,8.10
2019-04-21T09:21:54.967Z,8.20
2019-04-21T09:22:54.030Z,9.30
2019-04-21T09:23:52.297Z,7.90
2019-04-21T09:24:52.124Z,8.70
2019-04-21T09:25:52.258Z,8.50
2019-04-21T09:26:54.262Z,8.50
2019-04-21T09:27:47.139Z,8.80
2019-04-21T09:28:48.339Z,8.20
2019-04-21T09:29:39.280Z,8.00
2019-04-21T09:30:39.490Z,8.50
2019-04-21T09:31:39.152Z,8.10
2019-04-21T09:32:36.331Z,8.00
2019-04-21T09:33:39.108Z,8.30
2019-04-21T09:34:38.484Z,8.00
2019-04-21T09:35:33.807Z,8.20
2019-04-21T09:36:38.928Z,8.80
2019-04-21T09:37:44.359Z,8.00
2019-04-21T09:38:38.083Z,8.20
2019-04-21T09:39:41.868Z,7.30
2019-04-21T09:40:40.309Z,8.00
2019-04-21T09:41:36.391Z,7.90
2019-04-21T09:42:41.027Z,6.90
2019-04-21T09:43:40.047Z,7.40
2019-04-21T09:44:38.650Z,7.10
2019-04-21T09:45:33.694Z,7.60
2019-04-21T09:46:34.172Z,7.10
2019-04-21T09:47:41.755Z,6.70
2019-04-21T09:48:49.108Z,6.90
2019-04-21T09:49:35.539Z,6.40
2019-04-21T09:50:34.980Z,7.30
2019-04-21T09:51:32.665Z,7.20
2019-04-21T09:52:44.273Z,7.10
2019-04-21T09:53:37.736Z,7.40
2019-04-21T09:54:40.508Z,7.50
2019-04-21T09:55:43.993Z,7.30
2019-04-21T09:56:43.655Z,7.60
2019-04-21T09:57:41.310Z,7.20
2019-04-21T09:58:40.275Z,6.50
2019-04-21T09:59:38.683Z,6.60
2019-04-21T10:00:46.153Z,7.20
2019-04-21T10:01:51.199Z,6.80
2019-04-21T10:02:42.762Z,7.50
2019-04-21T10:03:44.807Z,7.30
2019-04-21T10:04:33.670Z,7.20
2019-04-21T10:05:33.741Z,8.00
2019-04-21T10:06:33.034Z,7.50
2019-04-21T10:07:37.250Z,7.10
2019-04-21T10:08:34.165Z,7.50
2019-04-21T10:09:33.333Z,6.80
2019-04-21T10:10:32.413Z,7.50
2019-04-21T10:11:33.276Z,6.60
2019-04-21T10:12:33.106Z,6.40
2019-04-21T10:13:32.376Z,6.80
2019-04-21T10:14:32.996Z,6.60
2019-04-21T10:15:33.225Z,6.60
2019-04-21T10:16:32.343Z,6.70
2019-04-21T10:17:33.059Z,6.30
2019-04-21T10:18:33.697Z,6.80
2019-04-21T10:19:32.332Z,7.00
2019-04-21T10:20:32.910Z,6.90
2019-04-21T10:21:33.846Z,6.30
2019-04-21T10:22:33.030Z,6.40
2019-04-21T10:23:32.265Z,6.40
2019-04-21T10:24:32.279Z,6.60
2019-04-21T10:25:32.522Z,6.50
2019-04-21T10:26:33.284Z,6.00
2019-04-21T10:27:32.218Z,6.20
2019-04-21T10:28:32.938Z,6.20
2019-04-21T10:29:33.381Z,6.10
2019-04-21T10:30:32.939Z,6.10
2019-04-21T10:31:32.480Z,6.10
2019-04-21T10:32:32.409Z,5.50
2019-04-21T10:33:32.513Z,5.70
2019-04-21T10:34:32.159Z,5.90
2019-04-21T10:35:32.940Z,6.20
2019-04-21T10:36:33.217Z,5.50
2019-04-21T10:37:42.865Z,5.80
2019-04-21T10:38:38.060Z,5.30
2019-04-21T10:39:33.677Z,5.50
2019-04-21T10:40:35.219Z,5.40
2019-04-21T10:41:33.091Z,5.70
2019-04-21T10:42:33.145Z,5.40
2019-04-21T10:43:33.366Z,5.40
2019-04-21T10:44:32.027Z,5.10
2019-04-21T10:45:32.821Z,5.40
2019-04-21T10:46:32.999Z,5.90
2019-04-21T10:47:31.994Z,5.10
2019-04-21T10:48:34.601Z,5.60
2019-04-21T10:49:32.739Z,5.10
2019-04-21T10:50:31.984Z,5.20
2019-04-21T10:51:32.875Z,4.70
2019-04-21T10:52:33.991Z,5.20
2019-04-21T10:53:31.931Z,5.40
2019-04-21T10:55:01.329Z,5.30
2019-04-21T10:55:50.541Z,5.30
2019-04-21T10:56:37.972Z,5.50
2019-04-21T10:57:32.892Z,5.40
2019-04-21T10:58:32.240Z,8.70
2019-04-21T10:59:33.125Z,8.60
2019-04-21T11:00:32.380Z,5.10
2019-04-21T11:01:31.854Z,9.50
2019-04-21T11:02:32.926Z,43.20
2019-04-21T11:03:33.187Z,24.50
2019-04-21T11:04:36.430Z,14.60
2019-04-21T11:05:32.798Z,7.20
2019-04-21T11:06:32.577Z,7.10
2019-04-21T11:07:35.810Z,8.30
2019-04-21T11:08:37.901Z,9.10
2019-04-21T11:09:33.948Z,6.60
2019-04-21T11:10:32.043Z,5.40
2019-04-21T11:11:32.145Z,5.00
2019-04-21T11:12:31.715Z,4.90
2019-04-21T11:13:32.631Z,4.70
2019-04-21T11:14:31.693Z,4.60
2019-04-21T11:15:32.766Z,5.00
2019-04-21T11:16:33.142Z,4.90
2019-04-21T11:17:32.294Z,4.50
2019-04-21T11:18:31.825Z,4.90
2019-04-21T11:19:32.774Z,4.50
2019-04-21T11:20:32.748Z,4.30
2019-04-21T11:21:31.639Z,5.00
2019-04-21T11:22:33.942Z,5.00
2019-04-21T11:23:31.595Z,4.80
2019-04-21T11:24:31.586Z,4.80
2019-04-21T11:25:31.575Z,4.60
2019-04-21T11:26:31.868Z,4.70
2019-04-21T11:27:33.133Z,4.80
2019-04-21T11:28:31.541Z,4.70
2019-04-21T11:29:32.963Z,4.80
2019-04-21T11:30:31.706Z,4.90
2019-04-21T11:31:31.509Z,4.60
2019-04-21T11:32:32.753Z,4.20
2019-04-21T11:33:31.502Z,5.10
2019-04-21T11:34:31.579Z,4.60
2019-04-21T11:35:31.461Z,5.10
2019-04-21T11:36:31.451Z,5.40
2019-04-21T11:37:32.312Z,5.40
2019-04-21T11:38:33.552Z,5.60
2019-04-21T11:39:39.578Z,5.80
2019-04-21T11:40:33.941Z,5.50
2019-04-21T11:41:31.837Z,5.30
2019-04-21T11:42:31.406Z,5.10
2019-04-21T11:43:32.825Z,5.30
2019-04-21T11:44:31.368Z,5.40
2019-04-21T11:45:32.712Z,5.00
2019-04-21T11:46:31.339Z,5.10
2019-04-21T11:47:32.288Z,5.50
2019-04-21T11:48:32.530Z,5.30
2019-04-21T11:49:32.604Z,5.00
2019-04-21T11:50:31.292Z,5.00
2019-04-21T11:51:31.285Z,5.50
2019-04-21T11:52:32.627Z,5.00
2019-04-21T11:53:31.262Z,4.80
2019-04-21T11:54:31.251Z,5.00
2019-04-21T11:55:34.367Z,4.60
2019-04-21T11:56:32.722Z,5.10
2019-04-21T11:57:36.681Z,4.90
2019-04-21T11:58:32.207Z,4.80
2019-04-21T11:59:31.196Z,4.80
2019-04-21T12:00:31.644Z,4.70
2019-04-21T12:01:31.868Z,5.30
2019-04-21T12:02:31.170Z,4.90
2019-04-21T12:03:31.722Z,5.00
2019-04-21T12:04:31.691Z,5.40
2019-04-21T12:05:31.130Z,5.10
2019-04-21T12:06:37.766Z,4.60
2019-04-21T12:07:33.334Z,4.60
2019-04-21T12:08:39.304Z,4.50
2019-04-21T12:09:33.215Z,5.10
2019-04-21T12:10:31.494Z,4.90
2019-04-21T12:11:31.461Z,5.20
2019-04-21T12:12:31.066Z,5.40
2019-04-21T12:13:32.190Z,5.80
2019-04-21T12:14:32.112Z,5.60
2019-04-21T12:15:31.452Z,5.60
2019-04-21T12:16:31.010Z,5.30
2019-04-21T12:17:32.080Z,5.70
2019-04-21T12:18:32.461Z,5.50
2019-04-21T12:19:30.977Z,5.40
2019-04-21T12:20:30.967Z,5.00
2019-04-21T12:21:45.169Z,4.80
2019-04-21T12:22:33.970Z,4.90
2019-04-21T12:23:32.265Z,5.50
2019-04-21T12:24:32.852Z,5.10
2019-04-21T12:25:31.353Z,5.00
2019-04-21T12:26:31.814Z,5.10
2019-04-21T12:27:32.027Z,4.50
2019-04-21T12:28:32.305Z,4.90
2019-04-21T12:29:30.891Z,4.90
2019-04-21T12:30:31.546Z,5.00
2019-04-21T12:31:31.720Z,4.90
2019-04-21T12:32:30.839Z,4.90
2019-04-21T12:33:32.066Z,5.50
2019-04-21T12:34:32.162Z,5.10
2019-04-21T12:35:30.812Z,4.90
2019-04-21T12:36:31.746Z,4.60
2019-04-21T12:37:31.006Z,4.90
2019-04-21T12:38:40.716Z,4.60
2019-04-21T12:39:32.801Z,4.90
2019-04-21T12:40:30.799Z,4.80
2019-04-21T12:41:30.867Z,5.00
2019-04-21T12:42:30.726Z,5.00
2019-04-21T12:43:30.764Z,5.10
2019-04-21T12:44:31.641Z,5.00
2019-04-21T12:45:31.609Z,4.90
2019-04-21T12:46:31.866Z,4.80
2019-04-21T12:47:31.998Z,4.70
2019-04-21T12:48:31.784Z,5.20
2019-04-21T12:49:31.806Z,4.90
2019-04-21T12:50:32.030Z,4.80
2019-04-21T12:51:30.638Z,5.40
2019-04-21T12:52:31.545Z,5.20
2019-04-21T12:53:31.926Z,4.60
2019-04-21T12:54:30.617Z,4.80
2019-04-21T12:55:35.147Z,5.60
2019-04-21T12:56:31.774Z,4.80
2019-04-21T12:57:31.884Z,4.90
2019-04-21T12:58:31.138Z,4.70
2019-04-21T12:59:32.307Z,4.90
2019-04-21T13:00:31.240Z,4.70
2019-04-21T13:01:30.778Z,4.30
2019-04-21T13:02:31.689Z,4.50
2019-04-21T13:03:30.540Z,4.30
2019-04-21T13:04:31.560Z,4.60
2019-04-21T13:05:31.641Z,4.20
2019-04-21T13:06:31.717Z,4.20
2019-04-21T13:07:31.188Z,4.30
2019-04-21T13:08:41.523Z,4.30
2019-04-21T13:09:32.485Z,4.50
2019-04-21T13:10:30.561Z,4.70
2019-04-21T13:11:31.001Z,4.40
2019-04-21T13:12:31.088Z,4.50
2019-04-21T13:13:30.389Z,4.30
2019-04-21T13:14:31.573Z,4.40
2019-04-21T13:15:31.426Z,4.20
2019-04-21T13:16:31.602Z,4.60
2019-04-21T13:17:31.110Z,4.60
2019-04-21T13:18:31.241Z,4.70
2019-04-21T13:19:31.442Z,4.20
2019-04-21T13:20:30.337Z,4.30
2019-04-21T13:21:30.321Z,4.20
2019-04-21T13:22:30.289Z,4.20
2019-04-21T13:23:31.287Z,4.40
2019-04-21T13:24:31.711Z,4.10
2019-04-21T13:25:30.281Z,4.40
2019-04-21T13:26:39.435Z,4.00
2019-04-21T13:27:31.235Z,4.20
2019-04-21T13:28:30.451Z,4.60
2019-04-21T13:29:30.397Z,4.40
2019-04-21T13:30:30.580Z,4.20
2019-04-21T13:31:30.193Z,4.30
2019-04-21T13:32:31.141Z,4.00
2019-04-21T13:33:31.227Z,4.10
2019-04-21T13:34:31.672Z,3.80
2019-04-21T13:35:30.968Z,3.90
2019-04-21T13:36:31.619Z,4.00
2019-04-21T13:37:30.128Z,4.30
2019-04-21T13:38:38.765Z,4.20
2019-04-21T13:39:55.274Z,4.60
2019-04-21T13:40:49.841Z,4.40
2019-04-21T13:41:42.842Z,4.50
2019-04-21T13:42:39.472Z,4.20
2019-04-21T13:43:31.064Z,4.70
2019-04-21T13:44:30.950Z,4.30
2019-04-21T13:45:30.111Z,4.20
2019-04-21T13:46:31.049Z,3.90
2019-04-21T13:47:30.483Z,4.00
2019-04-21T13:48:30.677Z,4.10
2019-04-21T13:49:30.002Z,4.30
2019-04-21T13:50:31.172Z,4.40
2019-04-21T13:51:31.154Z,4.40
2019-04-21T13:52:30.947Z,3.60
2019-04-21T13:53:31.264Z,3.90
2019-04-21T13:54:29.947Z,4.40
2019-04-21T13:55:29.934Z,4.20
2019-04-21T13:56:29.960Z,4.10
2019-04-21T13:57:30.367Z,4.10
2019-04-21T13:58:30.427Z,4.30
2019-04-21T13:59:29.891Z,4.50
2019-04-21T14:00:29.881Z,4.10
2019-04-21T14:01:29.893Z,4.00
2019-04-21T14:02:30.949Z,4.50
2019-04-21T14:03:31.309Z,3.90
2019-04-21T14:04:29.851Z,4.40
2019-04-21T14:05:30.668Z,4.20
2019-04-21T14:06:30.177Z,4.20
2019-04-21T14:07:30.253Z,4.60
2019-04-21T14:08:31.261Z,4.20
2019-04-21T14:09:43.293Z,4.60
2019-04-21T14:10:31.462Z,4.60
2019-04-21T14:11:29.786Z,4.30
2019-04-21T14:12:29.754Z,4.50
2019-04-21T14:13:30.324Z,4.10
2019-04-21T14:14:30.385Z,3.80
2019-04-21T14:15:30.372Z,4.00